sensor_id;sensor_type;location;lat;lon;timestamp;temperature;humidity
24011;DHT22;12217;50.792;4.372;2024-03-23T00:54:21;10.80;99.90
24011;DHT22;12217;50.792;4.372;2024-03-23T00:56:47;10.80;99.90
24011;DHT22;12217;50.792;4.372;2024-03-23T00:59:13;10.70;99.90
24011;DHT22;12217;50.792;4.372;2024-03-23T01:01:39;10.60;99.90
24011;DHT22;12217;50.792;4.372;2024-03-23T01:04:05;10.50;99.90
24011;DHT22;12217;50.792;4.372;2024-03-23T01:06:30;10.60;99.90
24011;DHT22;12217;50.792;4.372;2024-03-23T01:08:56;10.60;99.90
24011;DHT22;12217;50.792;4.372;2024-03-23T01:11:21;10.60;99.90
24011;DHT22;12217;50.792;4.372;2024-03-23T01:13:47;10.50;99.90
24011;DHT22;12217;50.792;4.372;2024-03-23T01:16:12;10.60;99.90
24011;DHT22;12217;50.792;4.372;2024-03-23T01:18:38;10.50;99.90
24011;DHT22;12217;50.792;4.372;2024-03-23T01:21:04;10.60;99.90
24011;DHT22;12217;50.792;4.372;2024-03-23T01:23:29;10.60;99.90
24011;DHT22;12217;50.792;4.372;2024-03-23T01:25:55;10.50;99.90
24011;DHT22;12217;50.792;4.372;2024-03-23T01:28:21;10.40;99.90
24011;DHT22;12217;50.792;4.372;2024-03-23T01:30:47;10.40;99.90
24011;DHT22;12217;50.792;4.372;2024-03-23T01:33:13;10.40;99.90
24011;DHT22;12217;50.792;4.372;2024-03-23T01:35:39;10.40;99.90
24011;DHT22;12217;50.792;4.372;2024-03-23T01:38:05;10.30;99.90
24011;DHT22;12217;50.792;4.372;2024-03-23T01:40:31;10.00;99.90
24011;DHT22;12217;50.792;4.372;2024-03-23T01:43:05;9.80;99.90
24011;DHT22;12217;50.792;4.372;2024-03-23T01:45:33;9.80;99.90
24011;DHT22;12217;50.792;4.372;2024-03-23T01:47:59;9.80;99.90
24011;DHT22;12217;50.792;4.372;2024-03-23T01:50:25;9.80;99.90
24011;DHT22;12217;50.792;4.372;2024-03-23T01:52:51;9.90;99.90
24011;DHT22;12217;50.792;4.372;2024-03-23T01:55:17;10.00;99.90
24011;DHT22;12217;50.792;4.372;2024-03-23T01:57:43;10.10;99.90
24011;DHT22;12217;50.792;4.372;2024-03-23T02:00:09;10.10;99.90
24011;DHT22;12217;50.792;4.372;2024-03-23T02:02:44;10.20;99.90
24011;DHT22;12217;50.792;4.372;2024-03-23T02:05:11;10.30;99.90
24011;DHT22;12217;50.792;4.372;2024-03-23T02:07:41;10.40;99.90
24011;DHT22;12217;50.792;4.372;2024-03-23T02:10:07;10.30;99.90
24011;DHT22;12217;50.792;4.372;2024-03-23T02:12:33;10.20;99.90
24011;DHT22;12217;50.792;4.372;2024-03-23T02:15:00;10.20;99.90
24011;DHT22;12217;50.792;4.372;2024-03-23T02:17:25;9.90;99.90
24011;DHT22;12217;50.792;4.372;2024-03-23T02:19:51;9.90;99.90
24011;DHT22;12217;50.792;4.372;2024-03-23T02:22:17;9.80;99.90
24011;DHT22;12217;50.792;4.372;2024-03-23T02:24:42;9.80;99.90
24011;DHT22;12217;50.792;4.372;2024-03-23T02:27:08;9.70;99.90
24011;DHT22;12217;50.792;4.372;2024-03-23T02:29:34;9.70;99.90
24011;DHT22;12217;50.792;4.372;2024-03-23T02:31:59;9.70;99.90
24011;DHT22;12217;50.792;4.372;2024-03-23T02:34:25;9.70;99.90
24011;DHT22;12217;50.792;4.372;2024-03-23T02:36:51;9.70;99.90
24011;DHT22;12217;50.792;4.372;2024-03-23T02:39:16;9.70;99.90
24011;DHT22;12217;50.792;4.372;2024-03-23T02:41:42;9.80;99.90
24011;DHT22;12217;50.792;4.372;2024-03-23T02:44:07;9.90;99.90
24011;DHT22;12217;50.792;4.372;2024-03-23T02:46:37;9.60;99.90
24011;DHT22;12217;50.792;4.372;2024-03-23T02:49:03;9.50;99.90
24011;DHT22;12217;50.792;4.372;2024-03-23T02:51:30;9.50;99.90
24011;DHT22;12217;50.792;4.372;2024-03-23T02:53:55;9.50;99.90
24011;DHT22;12217;50.792;4.372;2024-03-23T02:56:22;9.70;99.90
24011;DHT22;12217;50.792;4.372;2024-03-23T02:58:47;9.70;99.90
24011;DHT22;12217;50.792;4.372;2024-03-23T03:01:13;9.60;99.90
24011;DHT22;12217;50.792;4.372;2024-03-23T03:03:38;9.60;99.90
24011;DHT22;12217;50.792;4.372;2024-03-23T03:06:04;9.40;99.90
24011;DHT22;12217;50.792;4.372;2024-03-23T03:08:30;9.50;99.90
24011;DHT22;12217;50.792;4.372;2024-03-23T03:10:55;9.60;99.90
24011;DHT22;12217;50.792;4.372;2024-03-23T03:13:21;9.60;99.90
24011;DHT22;12217;50.792;4.372;2024-03-23T03:15:47;9.60;99.90
24011;DHT22;12217;50.792;4.372;2024-03-23T03:18:13;9.60;99.90
24011;DHT22;12217;50.792;4.372;2024-03-23T03:20:39;9.70;99.90
24011;DHT22;12217;50.792;4.372;2024-03-23T03:23:05;9.70;99.90
24011;DHT22;12217;50.792;4.372;2024-03-23T03:25:31;9.70;99.90
24011;DHT22;12217;50.792;4.372;2024-03-23T03:27:56;9.60;99.90
24011;DHT22;12217;50.792;4.372;2024-03-23T03:30:22;9.70;99.90
24011;DHT22;12217;50.792;4.372;2024-03-23T03:32:49;9.70;99.90
24011;DHT22;12217;50.792;4.372;2024-03-23T03:35:14;9.70;99.90
24011;DHT22;12217;50.792;4.372;2024-03-23T03:37:40;9.70;99.90
24011;DHT22;12217;50.792;4.372;2024-03-23T03:40:06;9.60;99.90
24011;DHT22;12217;50.792;4.372;2024-03-23T03:42:34;9.40;99.90
24011;DHT22;12217;50.792;4.372;2024-03-23T03:45:00;9.50;99.90
24011;DHT22;12217;50.792;4.372;2024-03-23T03:47:25;9.50;99.90
24011;DHT22;12217;50.792;4.372;2024-03-23T03:49:51;9.40;99.90
24011;DHT22;12217;50.792;4.372;2024-03-23T03:52:17;9.50;99.90
24011;DHT22;12217;50.792;4.372;2024-03-23T03:54:42;9.60;99.90
24011;DHT22;12217;50.792;4.372;2024-03-23T03:57:08;9.60;99.90
24011;DHT22;12217;50.792;4.372;2024-03-23T03:59:33;9.70;99.90
24011;DHT22;12217;50.792;4.372;2024-03-23T04:02:00;9.80;99.90
24011;DHT22;12217;50.792;4.372;2024-03-23T04:04:25;9.90;99.90
24011;DHT22;12217;50.792;4.372;2024-03-23T04:07:01;9.70;99.90
24011;DHT22;12217;50.792;4.372;2024-03-23T04:09:27;9.60;99.90
24011;DHT22;12217;50.792;4.372;2024-03-23T04:11:53;9.60;99.90
24011;DHT22;12217;50.792;4.372;2024-03-23T04:14:19;9.50;99.90
24011;DHT22;12217;50.792;4.372;2024-03-23T04:16:44;9.50;99.90
24011;DHT22;12217;50.792;4.372;2024-03-23T04:19:10;9.50;99.90
24011;DHT22;12217;50.792;4.372;2024-03-23T04:21:37;9.40;99.90
24011;DHT22;12217;50.792;4.372;2024-03-23T04:24:03;9.50;99.90
24011;DHT22;12217;50.792;4.372;2024-03-23T04:26:29;9.40;99.90
24011;DHT22;12217;50.792;4.372;2024-03-23T04:28:55;9.40;99.90
24011;DHT22;12217;50.792;4.372;2024-03-23T04:31:20;9.40;99.90
24011;DHT22;12217;50.792;4.372;2024-03-23T04:33:47;9.50;99.90
24011;DHT22;12217;50.792;4.372;2024-03-23T04:36:12;9.40;99.90
24011;DHT22;12217;50.792;4.372;2024-03-23T04:38:38;9.50;99.90
24011;DHT22;12217;50.792;4.372;2024-03-23T04:41:04;9.30;99.90
24011;DHT22;12217;50.792;4.372;2024-03-23T04:43:29;9.30;99.90
24011;DHT22;12217;50.792;4.372;2024-03-23T04:45:55;9.30;99.90
24011;DHT22;12217;50.792;4.372;2024-03-23T04:48:21;9.30;99.90
24011;DHT22;12217;50.792;4.372;2024-03-23T04:50:54;9.30;99.90
24011;DHT22;12217;50.792;4.372;2024-03-23T04:53:20;9.40;99.90
24011;DHT22;12217;50.792;4.372;2024-03-23T04:55:45;9.10;99.90
24011;DHT22;12217;50.792;4.372;2024-03-23T04:58:11;9.10;99.90
24011;DHT22;12217;50.792;4.372;2024-03-23T05:00:37;9.00;99.90
24011;DHT22;12217;50.792;4.372;2024-03-23T05:03:02;8.90;99.90
24011;DHT22;12217;50.792;4.372;2024-03-23T05:05:29;8.90;99.90
24011;DHT22;12217;50.792;4.372;2024-03-23T05:07:55;9.00;99.90
24011;DHT22;12217;50.792;4.372;2024-03-23T05:10:20;8.90;99.90
24011;DHT22;12217;50.792;4.372;2024-03-23T05:12:46;9.00;99.90
24011;DHT22;12217;50.792;4.372;2024-03-23T05:15:12;9.00;99.90
24011;DHT22;12217;50.792;4.372;2024-03-23T05:17:38;9.00;99.90
24011;DHT22;12217;50.792;4.372;2024-03-23T05:20:04;9.10;99.90
24011;DHT22;12217;50.792;4.372;2024-03-23T05:22:30;8.90;99.90
24011;DHT22;12217;50.792;4.372;2024-03-23T05:24:56;9.00;99.90
24011;DHT22;12217;50.792;4.372;2024-03-23T05:27:22;9.10;99.90
24011;DHT22;12217;50.792;4.372;2024-03-23T05:29:47;9.20;99.90
24011;DHT22;12217;50.792;4.372;2024-03-23T05:32:13;8.90;99.90
24011;DHT22;12217;50.792;4.372;2024-03-23T05:34:38;8.80;99.90
24011;DHT22;12217;50.792;4.372;2024-03-23T05:37:04;8.60;99.90
24011;DHT22;12217;50.792;4.372;2024-03-23T05:39:29;8.60;99.90
24011;DHT22;12217;50.792;4.372;2024-03-23T05:41:55;8.60;99.90
24011;DHT22;12217;50.792;4.372;2024-03-23T05:44:21;8.40;99.90
24011;DHT22;12217;50.792;4.372;2024-03-23T05:46:46;8.60;99.90
24011;DHT22;12217;50.792;4.372;2024-03-23T05:49:15;8.70;99.90
24011;DHT22;12217;50.792;4.372;2024-03-23T05:51:40;8.80;99.90
24011;DHT22;12217;50.792;4.372;2024-03-23T05:54:06;8.70;99.90
24011;DHT22;12217;50.792;4.372;2024-03-23T05:56:32;8.60;99.90
24011;DHT22;12217;50.792;4.372;2024-03-23T05:58:57;8.70;99.90
24011;DHT22;12217;50.792;4.372;2024-03-23T06:01:23;8.80;99.90
24011;DHT22;12217;50.792;4.372;2024-03-23T06:03:48;8.60;99.90
24011;DHT22;12217;50.792;4.372;2024-03-23T06:06:14;8.70;99.90
24011;DHT22;12217;50.792;4.372;2024-03-23T06:08:40;8.80;99.90
24011;DHT22;12217;50.792;4.372;2024-03-23T06:11:06;8.60;99.90
24011;DHT22;12217;50.792;4.372;2024-03-23T06:13:32;8.40;99.90
24011;DHT22;12217;50.792;4.372;2024-03-23T06:15:59;8.30;99.90
24011;DHT22;12217;50.792;4.372;2024-03-23T06:18:25;8.30;99.90
24011;DHT22;12217;50.792;4.372;2024-03-23T06:20:51;8.40;99.90
24011;DHT22;12217;50.792;4.372;2024-03-23T06:23:16;8.30;99.90
24011;DHT22;12217;50.792;4.372;2024-03-23T06:25:42;8.30;99.90
24011;DHT22;12217;50.792;4.372;2024-03-23T06:28:08;8.30;99.90
24011;DHT22;12217;50.792;4.372;2024-03-23T06:30:34;8.40;99.90
24011;DHT22;12217;50.792;4.372;2024-03-23T06:32:59;8.30;99.90
24011;DHT22;12217;50.792;4.372;2024-03-23T06:35:25;8.30;99.90
24011;DHT22;12217;50.792;4.372;2024-03-23T06:37:51;8.30;99.90
24011;DHT22;12217;50.792;4.372;2024-03-23T06:40:16;8.50;99.90
24011;DHT22;12217;50.792;4.372;2024-03-23T06:42:42;8.50;99.90
24011;DHT22;12217;50.792;4.372;2024-03-23T06:45:08;8.60;99.90
24011;DHT22;12217;50.792;4.372;2024-03-23T06:47:34;8.80;99.90
24011;DHT22;12217;50.792;4.372;2024-03-23T06:50:00;8.70;99.90
24011;DHT22;12217;50.792;4.372;2024-03-23T06:52:31;8.80;99.90
24011;DHT22;12217;50.792;4.372;2024-03-23T06:54:57;8.60;99.90
24011;DHT22;12217;50.792;4.372;2024-03-23T06:57:23;8.50;99.90
24011;DHT22;12217;50.792;4.372;2024-03-23T06:59:49;8.20;99.90
24011;DHT22;12217;50.792;4.372;2024-03-23T07:02:14;8.20;99.90
24011;DHT22;12217;50.792;4.372;2024-03-23T07:04:41;8.20;99.90
24011;DHT22;12217;50.792;4.372;2024-03-23T07:07:07;8.00;99.90
24011;DHT22;12217;50.792;4.372;2024-03-23T07:09:33;8.10;99.90
24011;DHT22;12217;50.792;4.372;2024-03-23T07:11:58;8.00;99.90
24011;DHT22;12217;50.792;4.372;2024-03-23T07:14:24;8.10;99.90
24011;DHT22;12217;50.792;4.372;2024-03-23T07:16:50;8.00;99.90
24011;DHT22;12217;50.792;4.372;2024-03-23T07:19:16;7.90;99.90
24011;DHT22;12217;50.792;4.372;2024-03-23T07:21:43;8.00;99.90
24011;DHT22;12217;50.792;4.372;2024-03-23T07:24:09;7.90;99.90
24011;DHT22;12217;50.792;4.372;2024-03-23T07:26:35;7.80;99.90
24011;DHT22;12217;50.792;4.372;2024-03-23T07:29:01;7.80;99.90
24011;DHT22;12217;50.792;4.372;2024-03-23T07:31:27;7.90;99.90
24011;DHT22;12217;50.792;4.372;2024-03-23T07:33:53;7.90;99.90
24011;DHT22;12217;50.792;4.372;2024-03-23T07:36:19;7.90;99.90
24011;DHT22;12217;50.792;4.372;2024-03-23T07:38:45;7.80;99.90
24011;DHT22;12217;50.792;4.372;2024-03-23T07:41:15;7.90;99.90
24011;DHT22;12217;50.792;4.372;2024-03-23T07:43:42;8.10;99.90
24011;DHT22;12217;50.792;4.372;2024-03-23T07:46:09;8.20;99.90
24011;DHT22;12217;50.792;4.372;2024-03-23T07:48:34;8.30;99.90
24011;DHT22;12217;50.792;4.372;2024-03-23T07:51:02;8.30;99.90
24011;DHT22;12217;50.792;4.372;2024-03-23T07:53:29;8.50;99.90
24011;DHT22;12217;50.792;4.372;2024-03-23T07:55:59;8.60;99.90
24011;DHT22;12217;50.792;4.372;2024-03-23T07:58:25;8.70;99.90
24011;DHT22;12217;50.792;4.372;2024-03-23T08:00:52;8.90;99.90
24011;DHT22;12217;50.792;4.372;2024-03-23T08:03:18;9.00;99.90
24011;DHT22;12217;50.792;4.372;2024-03-23T08:05:45;8.90;99.90
24011;DHT22;12217;50.792;4.372;2024-03-23T08:08:10;8.60;99.90
24011;DHT22;12217;50.792;4.372;2024-03-23T08:10:37;8.40;99.90
24011;DHT22;12217;50.792;4.372;2024-03-23T08:13:03;8.40;99.90
24011;DHT22;12217;50.792;4.372;2024-03-23T08:15:32;8.60;99.90
24011;DHT22;12217;50.792;4.372;2024-03-23T08:18:00;8.70;99.90
24011;DHT22;12217;50.792;4.372;2024-03-23T08:20:26;8.90;99.90
24011;DHT22;12217;50.792;4.372;2024-03-23T08:22:52;8.80;99.90
24011;DHT22;12217;50.792;4.372;2024-03-23T08:25:18;8.50;99.90
24011;DHT22;12217;50.792;4.372;2024-03-23T08:27:44;8.60;99.90
24011;DHT22;12217;50.792;4.372;2024-03-23T08:30:10;8.80;99.90
24011;DHT22;12217;50.792;4.372;2024-03-23T08:32:36;8.80;99.90
24011;DHT22;12217;50.792;4.372;2024-03-23T08:35:02;9.20;99.90
24011;DHT22;12217;50.792;4.372;2024-03-23T08:37:28;9.30;99.90
24011;DHT22;12217;50.792;4.372;2024-03-23T08:39:53;9.30;99.90
24011;DHT22;12217;50.792;4.372;2024-03-23T08:42:19;9.20;99.90
24011;DHT22;12217;50.792;4.372;2024-03-23T08:44:46;9.20;99.90
24011;DHT22;12217;50.792;4.372;2024-03-23T08:47:15;9.20;99.90
24011;DHT22;12217;50.792;4.372;2024-03-23T08:49:40;9.20;99.90
24011;DHT22;12217;50.792;4.372;2024-03-23T08:52:07;9.10;99.90
24011;DHT22;12217;50.792;4.372;2024-03-23T08:54:32;8.80;99.90
24011;DHT22;12217;50.792;4.372;2024-03-23T08:56:58;9.00;99.90
24011;DHT22;12217;50.792;4.372;2024-03-23T08:59:23;9.10;99.90
24011;DHT22;12217;50.792;4.372;2024-03-23T09:01:49;9.10;99.90
24011;DHT22;12217;50.792;4.372;2024-03-23T09:04:15;9.30;99.90
24011;DHT22;12217;50.792;4.372;2024-03-23T09:06:42;9.50;99.90
24011;DHT22;12217;50.792;4.372;2024-03-23T09:09:08;9.70;99.90
24011;DHT22;12217;50.792;4.372;2024-03-23T09:11:34;9.60;99.90
24011;DHT22;12217;50.792;4.372;2024-03-23T09:14:00;9.70;99.90
24011;DHT22;12217;50.792;4.372;2024-03-23T09:16:25;9.90;99.90
24011;DHT22;12217;50.792;4.372;2024-03-23T09:18:52;10.00;99.90
24011;DHT22;12217;50.792;4.372;2024-03-23T09:21:17;10.10;99.90
24011;DHT22;12217;50.792;4.372;2024-03-23T09:23:44;10.10;99.90
24011;DHT22;12217;50.792;4.372;2024-03-23T09:26:09;9.90;99.90
24011;DHT22;12217;50.792;4.372;2024-03-23T09:28:35;9.80;99.90
24011;DHT22;12217;50.792;4.372;2024-03-23T09:31:05;9.60;99.90
24011;DHT22;12217;50.792;4.372;2024-03-23T09:33:31;9.50;99.90
24011;DHT22;12217;50.792;4.372;2024-03-23T09:35:56;9.50;99.90
24011;DHT22;12217;50.792;4.372;2024-03-23T09:38:25;9.60;99.90
24011;DHT22;12217;50.792;4.372;2024-03-23T09:40:53;9.90;99.90
24011;DHT22;12217;50.792;4.372;2024-03-23T09:43:19;9.80;99.90
24011;DHT22;12217;50.792;4.372;2024-03-23T09:45:45;10.00;99.90
24011;DHT22;12217;50.792;4.372;2024-03-23T09:48:11;10.10;99.90
24011;DHT22;12217;50.792;4.372;2024-03-23T09:50:38;9.90;99.90
24011;DHT22;12217;50.792;4.372;2024-03-23T09:53:10;9.90;99.90
24011;DHT22;12217;50.792;4.372;2024-03-23T09:55:43;9.80;99.90
24011;DHT22;12217;50.792;4.372;2024-03-23T09:58:13;9.80;99.90
24011;DHT22;12217;50.792;4.372;2024-03-23T10:00:39;9.80;99.90
24011;DHT22;12217;50.792;4.372;2024-03-23T10:03:05;9.60;99.90
24011;DHT22;12217;50.792;4.372;2024-03-23T10:05:32;9.40;99.90
24011;DHT22;12217;50.792;4.372;2024-03-23T10:08:00;9.40;99.90
24011;DHT22;12217;50.792;4.372;2024-03-23T10:10:42;9.40;99.90
24011;DHT22;12217;50.792;4.372;2024-03-23T10:13:08;9.50;99.90
24011;DHT22;12217;50.792;4.372;2024-03-23T10:15:35;9.80;99.90
24011;DHT22;12217;50.792;4.372;2024-03-23T10:20:41;9.70;99.90
24011;DHT22;12217;50.792;4.372;2024-03-23T10:23:16;9.50;99.90
24011;DHT22;12217;50.792;4.372;2024-03-23T10:25:42;9.30;99.90
24011;DHT22;12217;50.792;4.372;2024-03-23T10:28:08;9.20;99.90
24011;DHT22;12217;50.792;4.372;2024-03-23T10:30:34;9.00;99.90
24011;DHT22;12217;50.792;4.372;2024-03-23T10:33:10;8.80;99.90
24011;DHT22;12217;50.792;4.372;2024-03-23T10:35:37;8.80;99.90
24011;DHT22;12217;50.792;4.372;2024-03-23T10:38:07;8.80;99.90
24011;DHT22;12217;50.792;4.372;2024-03-23T10:40:37;9.10;99.90
24011;DHT22;12217;50.792;4.372;2024-03-23T10:43:06;9.30;99.90
24011;DHT22;12217;50.792;4.372;2024-03-23T10:45:33;9.40;99.90
24011;DHT22;12217;50.792;4.372;2024-03-23T10:47:59;9.70;99.90
24011;DHT22;12217;50.792;4.372;2024-03-23T10:50:25;10.00;99.90
24011;DHT22;12217;50.792;4.372;2024-03-23T10:52:53;10.10;99.90
24011;DHT22;12217;50.792;4.372;2024-03-23T10:55:20;10.10;99.90
24011;DHT22;12217;50.792;4.372;2024-03-23T10:57:54;10.40;99.90
24011;DHT22;12217;50.792;4.372;2024-03-23T11:00:21;10.70;99.90
24011;DHT22;12217;50.792;4.372;2024-03-23T11:02:48;10.50;99.90
24011;DHT22;12217;50.792;4.372;2024-03-23T11:05:46;10.40;99.90
24011;DHT22;12217;50.792;4.372;2024-03-23T11:08:30;10.30;99.90
24011;DHT22;12217;50.792;4.372;2024-03-23T11:11:16;10.30;99.90
24011;DHT22;12217;50.792;4.372;2024-03-23T11:13:42;10.70;99.90
24011;DHT22;12217;50.792;4.372;2024-03-23T11:18:50;11.60;99.90
24011;DHT22;12217;50.792;4.372;2024-03-23T11:21:54;11.40;99.90
24011;DHT22;12217;50.792;4.372;2024-03-23T11:24:21;11.40;99.90
24011;DHT22;12217;50.792;4.372;2024-03-23T11:26:48;11.00;99.90
24011;DHT22;12217;50.792;4.372;2024-03-23T11:29:15;10.70;99.90
24011;DHT22;12217;50.792;4.372;2024-03-23T11:31:51;10.70;99.90
24011;DHT22;12217;50.792;4.372;2024-03-23T11:34:18;10.40;99.90
24011;DHT22;12217;50.792;4.372;2024-03-23T11:36:44;10.50;99.90
24011;DHT22;12217;50.792;4.372;2024-03-23T11:39:17;10.40;99.90
24011;DHT22;12217;50.792;4.372;2024-03-23T11:41:50;10.10;99.90
24011;DHT22;12217;50.792;4.372;2024-03-23T11:44:20;10.40;99.90
24011;DHT22;12217;50.792;4.372;2024-03-23T11:46:47;10.40;99.90
24011;DHT22;12217;50.792;4.372;2024-03-23T11:49:21;10.10;99.90
24011;DHT22;12217;50.792;4.372;2024-03-23T11:51:48;10.00;99.90
24011;DHT22;12217;50.792;4.372;2024-03-23T11:54:14;10.10;99.90
24011;DHT22;12217;50.792;4.372;2024-03-23T11:56:39;10.30;99.90
24011;DHT22;12217;50.792;4.372;2024-03-23T11:59:06;10.60;99.90
24011;DHT22;12217;50.792;4.372;2024-03-23T12:01:32;10.80;99.90
24011;DHT22;12217;50.792;4.372;2024-03-23T12:03:57;10.70;99.90
24011;DHT22;12217;50.792;4.372;2024-03-23T12:06:23;10.80;99.90
24011;DHT22;12217;50.792;4.372;2024-03-23T12:08:48;10.60;99.90
24011;DHT22;12217;50.792;4.372;2024-03-23T12:11:17;10.70;99.90
24011;DHT22;12217;50.792;4.372;2024-03-23T12:13:45;10.70;99.90
24011;DHT22;12217;50.792;4.372;2024-03-23T12:16:21;10.80;99.90
24011;DHT22;12217;50.792;4.372;2024-03-23T12:18:50;11.00;99.90
24011;DHT22;12217;50.792;4.372;2024-03-23T12:21:18;11.40;99.90
24011;DHT22;12217;50.792;4.372;2024-03-23T12:23:44;11.40;99.90
24011;DHT22;12217;50.792;4.372;2024-03-23T12:26:12;11.30;99.90
24011;DHT22;12217;50.792;4.372;2024-03-23T12:28:38;11.00;99.90
24011;DHT22;12217;50.792;4.372;2024-03-23T12:31:04;10.70;99.90
24011;DHT22;12217;50.792;4.372;2024-03-23T12:33:30;10.50;99.90
24011;DHT22;12217;50.792;4.372;2024-03-23T12:35:56;10.00;99.90
24011;DHT22;12217;50.792;4.372;2024-03-23T12:38:22;9.70;99.90
24011;DHT22;12217;50.792;4.372;2024-03-23T12:40:50;9.90;99.90
24011;DHT22;12217;50.792;4.372;2024-03-23T12:43:17;9.90;99.90
24011;DHT22;12217;50.792;4.372;2024-03-23T12:45:47;10.00;99.90
24011;DHT22;12217;50.792;4.372;2024-03-23T12:48:12;9.90;99.90
24011;DHT22;12217;50.792;4.372;2024-03-23T12:50:38;9.90;99.90
24011;DHT22;12217;50.792;4.372;2024-03-23T12:53:04;10.40;99.90
24011;DHT22;12217;50.792;4.372;2024-03-23T12:55:29;10.70;99.90
24011;DHT22;12217;50.792;4.372;2024-03-23T12:57:55;11.00;99.90
24011;DHT22;12217;50.792;4.372;2024-03-23T13:00:20;11.40;99.90
24011;DHT22;12217;50.792;4.372;2024-03-23T13:02:46;11.70;99.90
24011;DHT22;12217;50.792;4.372;2024-03-23T13:05:12;11.80;99.90
24011;DHT22;12217;50.792;4.372;2024-03-23T13:07:37;11.60;99.90
24011;DHT22;12217;50.792;4.372;2024-03-23T13:10:05;11.50;99.90
24011;DHT22;12217;50.792;4.372;2024-03-23T13:12:31;11.70;99.90
24011;DHT22;12217;50.792;4.372;2024-03-23T13:14:57;12.10;99.90
24011;DHT22;12217;50.792;4.372;2024-03-23T13:17:22;12.30;99.90
24011;DHT22;12217;50.792;4.372;2024-03-23T13:19:48;12.70;99.90
24011;DHT22;12217;50.792;4.372;2024-03-23T13:22:13;12.50;99.90
24011;DHT22;12217;50.792;4.372;2024-03-23T13:24:39;12.70;99.90
24011;DHT22;12217;50.792;4.372;2024-03-23T13:27:05;13.00;99.90
24011;DHT22;12217;50.792;4.372;2024-03-23T13:29:34;12.70;99.90
24011;DHT22;12217;50.792;4.372;2024-03-23T13:32:01;13.00;99.90
24011;DHT22;12217;50.792;4.372;2024-03-23T13:34:26;13.30;99.90
24011;DHT22;12217;50.792;4.372;2024-03-23T13:36:53;13.60;99.90
24011;DHT22;12217;50.792;4.372;2024-03-23T13:39:18;13.80;99.90
24011;DHT22;12217;50.792;4.372;2024-03-23T13:41:45;13.80;99.90
24011;DHT22;12217;50.792;4.372;2024-03-23T13:44:14;13.40;99.90
24011;DHT22;12217;50.792;4.372;2024-03-23T13:46:40;12.90;99.90
24011;DHT22;12217;50.792;4.372;2024-03-23T13:49:45;12.00;99.90
24011;DHT22;12217;50.792;4.372;2024-03-23T13:52:05;11.50;99.90
24011;DHT22;12217;50.792;4.372;2024-03-23T13:54:32;11.30;99.90
24011;DHT22;12217;50.792;4.372;2024-03-23T13:56:58;11.60;99.90
24011;DHT22;12217;50.792;4.372;2024-03-23T13:59:23;11.40;99.90
24011;DHT22;12217;50.792;4.372;2024-03-23T14:01:50;11.30;99.90
24011;DHT22;12217;50.792;4.372;2024-03-23T14:04:16;11.00;99.90
24011;DHT22;12217;50.792;4.372;2024-03-23T14:06:42;11.00;99.90
24011;DHT22;12217;50.792;4.372;2024-03-23T14:09:10;11.00;99.90
24011;DHT22;12217;50.792;4.372;2024-03-23T14:11:36;11.20;99.90
24011;DHT22;12217;50.792;4.372;2024-03-23T14:14:02;11.60;99.90
24011;DHT22;12217;50.792;4.372;2024-03-23T14:16:29;11.70;99.90
24011;DHT22;12217;50.792;4.372;2024-03-23T14:18:55;12.00;99.90
24011;DHT22;12217;50.792;4.372;2024-03-23T14:21:20;12.20;99.90
24011;DHT22;12217;50.792;4.372;2024-03-23T14:23:46;12.40;99.90
24011;DHT22;12217;50.792;4.372;2024-03-23T14:26:12;12.70;99.90
24011;DHT22;12217;50.792;4.372;2024-03-23T14:28:37;12.60;99.90
24011;DHT22;12217;50.792;4.372;2024-03-23T14:31:03;12.70;99.90
24011;DHT22;12217;50.792;4.372;2024-03-23T14:33:34;12.60;99.90
24011;DHT22;12217;50.792;4.372;2024-03-23T14:36:00;12.60;99.90
24011;DHT22;12217;50.792;4.372;2024-03-23T14:38:26;13.40;99.90
24011;DHT22;12217;50.792;4.372;2024-03-23T14:40:51;13.60;99.90
24011;DHT22;12217;50.792;4.372;2024-03-23T14:43:18;13.50;99.90
24011;DHT22;12217;50.792;4.372;2024-03-23T14:48:35;13.40;99.90
24011;DHT22;12217;50.792;4.372;2024-03-23T14:51:02;13.90;99.90
24011;DHT22;12217;50.792;4.372;2024-03-23T14:53:30;13.70;99.90
24011;DHT22;12217;50.792;4.372;2024-03-23T14:55:56;14.00;99.90
24011;DHT22;12217;50.792;4.372;2024-03-23T14:58:22;14.30;99.90
24011;DHT22;12217;50.792;4.372;2024-03-23T15:00:51;14.60;99.90
24011;DHT22;12217;50.792;4.372;2024-03-23T15:03:17;14.50;99.90
24011;DHT22;12217;50.792;4.372;2024-03-23T15:05:52;14.90;99.90
24011;DHT22;12217;50.792;4.372;2024-03-23T15:08:18;14.40;99.90
24011;DHT22;12217;50.792;4.372;2024-03-23T15:10:43;14.40;99.90
24011;DHT22;12217;50.792;4.372;2024-03-23T15:13:09;14.80;99.90
24011;DHT22;12217;50.792;4.372;2024-03-23T15:15:39;15.30;99.90
24011;DHT22;12217;50.792;4.372;2024-03-23T15:18:06;15.20;99.90
24011;DHT22;12217;50.792;4.372;2024-03-23T15:20:31;14.90;99.90
24011;DHT22;12217;50.792;4.372;2024-03-23T15:23:02;14.60;99.90
24011;DHT22;12217;50.792;4.372;2024-03-23T15:25:27;14.80;99.90
24011;DHT22;12217;50.792;4.372;2024-03-23T15:27:53;15.00;99.90
24011;DHT22;12217;50.792;4.372;2024-03-23T15:30:20;15.00;99.90
24011;DHT22;12217;50.792;4.372;2024-03-23T15:32:46;15.30;99.90
24011;DHT22;12217;50.792;4.372;2024-03-23T15:35:12;14.90;99.90
24011;DHT22;12217;50.792;4.372;2024-03-23T15:37:38;14.10;99.90
24011;DHT22;12217;50.792;4.372;2024-03-23T15:40:05;14.10;99.90
24011;DHT22;12217;50.792;4.372;2024-03-23T15:42:32;14.70;99.90
24011;DHT22;12217;50.792;4.372;2024-03-23T15:44:57;15.30;99.90
24011;DHT22;12217;50.792;4.372;2024-03-23T15:47:23;14.70;99.90
24011;DHT22;12217;50.792;4.372;2024-03-23T15:49:49;14.30;99.90
24011;DHT22;12217;50.792;4.372;2024-03-23T15:52:15;14.00;99.90
24011;DHT22;12217;50.792;4.372;2024-03-23T15:54:43;13.50;99.90
24011;DHT22;12217;50.792;4.372;2024-03-23T15:57:08;12.90;99.90
24011;DHT22;12217;50.792;4.372;2024-03-23T15:59:34;12.70;99.90
24011;DHT22;12217;50.792;4.372;2024-03-23T16:02:01;12.80;99.90
24011;DHT22;12217;50.792;4.372;2024-03-23T16:04:28;12.50;99.90
24011;DHT22;12217;50.792;4.372;2024-03-23T16:06:53;12.20;99.90
24011;DHT22;12217;50.792;4.372;2024-03-23T16:09:19;12.30;99.90
24011;DHT22;12217;50.792;4.372;2024-03-23T16:11:45;12.50;99.90
24011;DHT22;12217;50.792;4.372;2024-03-23T16:14:10;12.60;99.90
24011;DHT22;12217;50.792;4.372;2024-03-23T16:16:36;12.90;99.90
24011;DHT22;12217;50.792;4.372;2024-03-23T16:19:01;13.10;99.90
24011;DHT22;12217;50.792;4.372;2024-03-23T16:21:27;13.10;99.90
24011;DHT22;12217;50.792;4.372;2024-03-23T16:23:53;13.10;99.90
24011;DHT22;12217;50.792;4.372;2024-03-23T16:26:18;13.00;99.90
24011;DHT22;12217;50.792;4.372;2024-03-23T16:28:44;13.10;99.90
24011;DHT22;12217;50.792;4.372;2024-03-23T16:31:11;13.20;99.90
24011;DHT22;12217;50.792;4.372;2024-03-23T16:33:37;13.10;99.90
24011;DHT22;12217;50.792;4.372;2024-03-23T16:36:08;12.80;99.90
24011;DHT22;12217;50.792;4.372;2024-03-23T16:38:42;12.40;99.90